Shijiazhuang, China
Current Conditions -  °F | °C
As of 2:00 AM on Friday 31 Oct 2014 (Local Time) from ZBSJ Reporting Station
Haze Haze  
Wind Chill: 52°   Ceiling: Unl
Heat Index: 52°   Visibility: 1mi
Dew Point: 48°   Wind: 4mph
Humidity: 88%   Direction: 300°WNW
Pressure: 30.18"   Gusts: NA
Location:  38.05°N, 114.48°E
Report Text: ZBSJ 301800Z 30002MPS 1700 BR NSC 11/09 Q1022 NOSIG
Loading
Personal Weather Stations






























Interactive Weather Map
Tropical Storm Tracking
New forecast layout! Learn more

10-Day Weather Forecast

Advertisements
Track Severe Weather on mobile